Time;durP1;ratioP1;P1;durP2;ratioP2;P2;SDS_P1;SDS_P2;PMS_P1;PMS_P2;Temp;Humidity;BMP_temperature;BMP_pressure;BME280_temperature;BME280_humidity;BME280_pressure;Samples;Min_cycle;Max_cycle;Signal;HPM_P1;HPM_P2
2020/12/07 00:01:37;;;;;;;10.28;9.25;;;;;;;-0.09;83.03;98485.11;1737726;82;21068;-76
2020/12/07 00:04:04;;;;;;;10.90;9.38;;;;;;;-0.08;82.96;98482.00;1737734;82;21383;-76
2020/12/07 00:06:32;;;;;;;11.20;10.10;;;;;;;-0.09;83.04;98483.78;1737733;82;20949;-76
2020/12/07 00:09:00;;;;;;;10.75;9.60;;;;;;;-0.09;82.92;98488.21;1737746;82;21024;-75
2020/12/07 00:11:27;;;;;;;10.18;9.10;;;;;;;-0.09;82.96;98484.25;1737675;82;20952;-75
2020/12/07 00:13:55;;;;;;;11.30;9.78;;;;;;;-0.09;82.94;98478.51;1737824;82;20941;-76
2020/12/07 00:16:23;;;;;;;11.38;10.05;;;;;;;-0.07;82.99;98481.11;1737814;82;21862;-76
2020/12/07 00:18:50;;;;;;;11.20;10.03;;;;;;;-0.06;82.92;98480.21;1737670;82;21359;-76
2020/12/07 00:21:19;;;;;;;12.03;10.78;;;;;;;-0.10;82.84;98507.13;1740105;82;20940;-77
2020/12/07 00:23:47;;;;;;;11.03;9.90;;;;;;;-0.08;82.75;98478.93;1748724;82;21441;-77
2020/12/07 00:26:14;;;;;;;11.90;10.63;;;;;;;-0.09;82.84;98482.47;1748818;82;21369;-76
2020/12/07 00:28:42;;;;;;;11.15;9.65;;;;;;;-0.09;82.86;98477.19;1748831;82;21365;-76
2020/12/07 00:31:13;;;;;;;10.60;9.20;;;;;;;-0.06;82.87;98490.31;1748855;82;21022;-76
2020/12/07 00:33:40;;;;;;;10.60;9.45;;;;;;;-0.07;82.83;98483.28;1748841;82;21024;-76
2020/12/07 00:36:08;;;;;;;10.55;9.48;;;;;;;-0.07;82.91;98491.20;1748695;82;20944;-76
2020/12/07 00:38:37;;;;;;;10.23;9.23;;;;;;;-0.12;82.73;98484.33;1748857;82;21098;-77
2020/12/07 00:41:04;;;;;;;10.25;9.25;;;;;;;-0.14;82.68;98475.13;1748814;82;21665;-78
2020/12/07 00:43:32;;;;;;;11.15;9.55;;;;;;;-0.11;82.79;98487.36;1748907;81;20956;-75
2020/12/07 00:46:00;;;;;;;10.65;8.58;;;;;;;-0.14;82.70;98488.33;1748920;82;21019;-76
2020/12/07 00:48:30;;;;;;;10.23;9.15;;;;;;;-0.13;82.64;98483.44;1748998;81;21516;-76
2020/12/07 00:50:58;;;;;;;11.18;10.08;;;;;;;-0.18;82.59;98474.77;1748945;81;21016;-77
2020/12/07 00:53:26;;;;;;;9.70;8.70;;;;;;;-0.16;82.81;98483.51;1748988;82;21255;-77
2020/12/07 00:55:54;;;;;;;9.65;8.73;;;;;;;-0.16;82.72;98472.95;1749011;82;20932;-77
2020/12/07 00:58:22;;;;;;;8.43;7.05;;;;;;;-0.18;82.57;98494.56;1748949;82;20936;-76
2020/12/07 01:00:50;;;;;;;8.93;8.03;;;;;;;-0.19;82.60;98478.30;1748999;82;20991;-76
2020/12/07 01:03:18;;;;;;;10.28;8.90;;;;;;;-0.18;82.71;98478.73;1749074;82;21008;-77
2020/12/07 01:05:47;;;;;;;9.28;7.83;;;;;;;-0.16;82.63;98480.02;1748924;82;21748;-76
2020/12/07 01:08:16;;;;;;;10.63;9.53;;;;;;;-0.16;82.54;98474.73;1748916;82;21477;-77
2020/12/07 01:10:44;;;;;;;9.70;8.75;;;;;;;-0.16;82.49;98465.03;1749013;82;21374;-75
2020/12/07 01:13:12;;;;;;;10.18;9.08;;;;;;;-0.13;82.32;98475.52;1748794;82;20943;-76
2020/12/07 01:15:40;;;;;;;10.35;9.33;;;;;;;-0.10;82.11;98481.19;1748988;82;21012;-75
2020/12/07 01:18:08;;;;;;;12.88;9.05;;;;;;;-0.07;82.00;98472.72;1749036;81;22273;-75
2020/12/07 01:20:36;;;;;;;9.60;8.70;;;;;;;-0.08;81.95;98465.73;1748896;80;21608;-75
2020/12/07 01:23:05;;;;;;;10.05;8.98;;;;;;;-0.07;81.99;98474.51;1749032;80;21366;-75
2020/12/07 01:25:32;;;;;;;11.25;9.70;;;;;;;-0.04;82.05;98481.03;1748902;82;21374;-76
2020/12/07 01:28:00;;;;;;;9.05;8.15;;;;;;;-0.05;81.94;98478.86;1748866;82;20991;-76
2020/12/07 01:30:28;;;;;;;9.78;8.80;;;;;;;-0.02;81.94;98477.45;1748981;82;21445;-76
2020/12/07 01:32:56;;;;;;;10.72;9.38;;;;;;;-0.01;81.92;98477.85;1748889;82;20996;-77
2020/12/07 01:35:25;;;;;;;10.05;8.93;;;;;;;-0.03;81.76;98479.67;1748969;82;21342;-75
2020/12/07 01:37:53;;;;;;;10.00;9.10;;;;;;;-0.02;81.83;98474.81;1748995;82;20925;-76
2020/12/07 01:40:21;;;;;;;9.73;8.73;;;;;;;-0.01;81.75;98468.61;1748927;82;20937;-77
2020/12/07 01:42:49;;;;;;;9.38;8.45;;;;;;;-0.04;81.78;98456.80;1748881;82;21777;-77
2020/12/07 01:45:18;;;;;;;14.30;10.03;;;;;;;-0.02;81.82;98453.69;1748942;82;21584;-77
2020/12/07 01:47:46;;;;;;;9.68;8.40;;;;;;;-0.02;81.84;98455.45;1748995;82;21358;-76
2020/12/07 01:50:14;;;;;;;10.38;9.10;;;;;;;-0.02;81.87;98456.33;1748908;82;20936;-75
2020/12/07 01:52:43;;;;;;;9.93;8.88;;;;;;;-0.05;81.71;98455.09;1749016;82;21351;-76
2020/12/07 01:55:11;;;;;;;9.80;8.75;;;;;;;-0.08;81.72;98463.09;1748890;82;21252;-76
2020/12/07 01:57:47;;;;;;;10.43;9.38;;;;;;;-0.10;81.83;98462.23;1748653;81;21047;-78
2020/12/07 02:00:16;;;;;;;10.70;9.65;;;;;;;-0.10;81.89;98454.31;1748879;82;20931;-76
2020/12/07 02:02:46;;;;;;;13.03;11.73;;;;;;;-0.10;81.93;98456.09;1748885;82;20936;-76
2020/12/07 02:05:16;;;;;;;9.98;9.08;;;;;;;-0.08;82.00;98441.97;1748986;82;20915;-76
2020/12/07 02:07:45;;;;;;;11.33;10.08;;;;;;;-0.09;81.91;98446.82;1748956;82;21428;-76
2020/12/07 02:10:13;;;;;;;9.65;8.60;;;;;;;-0.08;81.90;98446.36;1748752;82;20908;-75
2020/12/07 02:12:41;;;;;;;12.63;10.15;;;;;;;-0.07;81.91;98452.92;1727811;82;20944;-76
2020/12/07 02:15:09;;;;;;;14.15;11.03;;;;;;;-0.07;81.76;98445.00;1748932;82;20996;-76
2020/12/07 02:17:37;;;;;;;10.60;9.63;;;;;;;-0.02;81.79;98456.77;1748906;82;21011;-77
2020/12/07 02:20:05;;;;;;;11.03;8.68;;;;;;;0.01;81.83;98454.52;1748903;82;20962;-76
2020/12/07 02:22:33;;;;;;;12.07;10.88;;;;;;;0.02;81.75;98462.83;1748714;81;20952;-75
2020/12/07 02:25:02;;;;;;;10.98;8.53;;;;;;;0.03;81.56;98459.29;1746564;81;20952;-76
2020/12/07 02:27:33;;;;;;;11.18;9.93;;;;;;;0.01;81.46;98451.41;1748900;81;21354;-76
2020/12/07 02:30:02;;;;;;;10.60;9.50;;;;;;;0.02;81.51;98440.38;1748910;82;20936;-77
2020/12/07 02:32:32;;;;;;;10.50;9.30;;;;;;;-0.02;81.63;98441.81;1748909;82;21386;-76
2020/12/07 02:35:04;;;;;;;10.88;9.55;;;;;;;-0.04;81.68;98456.80;1737494;82;20944;-76
2020/12/07 02:37:35;;;;;;;10.68;9.58;;;;;;;-0.05;81.66;98448.48;1748000;82;21358;-76
2020/12/07 02:40:05;;;;;;;10.88;9.88;;;;;;;-0.06;81.79;98438.83;1748799;82;20932;-76
2020/12/07 02:42:34;;;;;;;12.10;10.93;;;;;;;-0.08;81.81;98447.25;1748856;82;20885;-76
2020/12/07 02:45:06;;;;;;;13.32;10.78;;;;;;;-0.09;81.88;98444.64;1748877;82;21797;-77
2020/12/07 02:47:35;;;;;;;11.25;10.13;;;;;;;-0.08;81.86;98443.28;1748868;82;20940;-76
2020/12/07 02:50:07;;;;;;;12.43;10.70;;;;;;;-0.08;81.64;98449.89;1748931;81;20896;-76
2020/12/07 02:52:36;;;;;;;12.63;11.00;;;;;;;-0.08;81.62;98449.89;1748782;82;20936;-75
2020/12/07 02:55:07;;;;;;;11.95;10.72;;;;;;;-0.07;81.60;98438.39;1727703;82;20933;-76
2020/12/07 02:57:34;;;;;;;12.30;10.50;;;;;;;-0.09;81.62;98434.94;1748891;82;21390;-75
2020/12/07 03:00:07;;;;;;;12.15;9.23;;;;;;;-0.13;81.55;98434.59;1727617;82;20956;-76
2020/12/07 03:02:35;;;;;;;9.30;8.25;;;;;;;-0.15;81.57;98429.81;1748996;82;20935;-75
2020/12/07 03:05:06;;;;;;;10.98;9.53;;;;;;;-0.16;81.52;98424.57;1748640;82;20933;-75
2020/12/07 03:07:35;;;;;;;9.65;8.30;;;;;;;-0.17;81.53;98421.08;1748837;82;20956;-76
2020/12/07 03:10:03;;;;;;;12.33;11.12;;;;;;;-0.17;81.48;98428.99;1748834;81;21364;-75
2020/12/07 03:12:32;;;;;;;11.45;9.23;;;;;;;-0.22;81.42;98418.98;1748861;81;21372;-76
2020/12/07 03:15:01;;;;;;;13.03;10.40;;;;;;;-0.22;81.47;98426.91;1748998;82;21472;-74
2020/12/07 03:17:30;;;;;;;11.48;10.28;;;;;;;-0.23;81.44;98419.45;1748773;82;20995;-74
2020/12/07 03:19:58;;;;;;;11.53;10.18;;;;;;;-0.22;81.47;98416.34;1727561;82;20944;-76
2020/12/07 03:22:26;;;;;;;12.20;10.40;;;;;;;-0.23;81.40;98408.03;1746429;80;21262;-76
2020/12/07 03:24:54;;;;;;;13.15;10.70;;;;;;;-0.26;81.43;98418.66;1740820;82;20937;-76
2020/12/07 03:27:21;;;;;;;13.70;10.60;;;;;;;-0.29;81.41;98427.52;1740940;82;20933;-77
2020/12/07 03:29:48;;;;;;;12.80;10.78;;;;;;;-0.32;81.50;98424.95;1740880;82;20989;-75
2020/12/07 03:32:17;;;;;;;13.55;9.28;;;;;;;-0.34;81.37;98415.36;1740856;82;21027;-76
2020/12/07 03:34:45;;;;;;;11.97;10.40;;;;;;;-0.35;81.33;98418.43;1741044;82;22313;-75
2020/12/07 03:37:13;;;;;;;14.20;9.60;;;;;;;-0.41;81.56;98422.11;1740817;82;21394;-76
2020/12/07 03:39:43;;;;;;;12.55;10.85;;;;;;;-0.40;81.67;98414.59;1739356;82;21390;-75
2020/12/07 03:42:13;;;;;;;12.45;10.48;;;;;;;-0.40;81.73;98413.73;1740836;82;20944;-75
2020/12/07 03:44:41;;;;;;;13.20;10.53;;;;;;;-0.40;81.73;98413.27;1740902;82;20928;-75
2020/12/07 03:47:10;;;;;;;13.43;10.88;;;;;;;-0.41;81.67;98419.90;1740878;82;21775;-76
2020/12/07 03:49:41;;;;;;;13.03;10.48;;;;;;;-0.43;81.46;98418.62;1740834;82;21390;-76
2020/12/07 03:52:10;;;;;;;12.28;9.60;;;;;;;-0.46;81.33;98423.97;1740793;82;20980;-76
2020/12/07 03:54:37;;;;;;;13.05;9.93;;;;;;;-0.46;81.41;98412.09;1740867;82;21012;-76
2020/12/07 03:57:06;;;;;;;11.93;10.65;;;;;;;-0.47;81.35;98412.13;1741024;82;21469;-76
2020/12/07 03:59:36;;;;;;;14.35;10.60;;;;;;;-0.49;81.22;98414.84;1740841;82;21361;-75
2020/12/07 04:02:04;;;;;;;13.22;10.25;;;;;;;-0.51;81.11;98408.71;1740765;82;20972;-76
2020/12/07 04:04:50;;;;;;;11.60;9.93;;;;;;;-0.53;81.12;98396.02;1740905;82;20940;-76
2020/12/07 04:07:14;;;;;;;11.68;9.63;;;;;;;-0.53;81.10;98399.98;1740400;82;20953;-76
2020/12/07 04:09:42;;;;;;;13.13;10.82;;;;;;;-0.56;81.10;98401.37;1740873;82;20925;-75
2020/12/07 04:12:10;;;;;;;16.93;10.30;;;;;;;-0.61;81.15;98389.61;1740901;82;21327;-76
2020/12/07 04:14:39;;;;;;;14.18;11.03;;;;;;;-0.61;81.18;98393.56;1740855;82;21446;-76
2020/12/07 04:17:06;;;;;;;15.35;10.78;;;;;;;-0.59;81.29;98407.58;1740949;82;21027;-77
2020/12/07 04:19:34;;;;;;;13.48;9.95;;;;;;;-0.62;81.20;98393.60;1740955;82;20941;-76
2020/12/07 04:22:01;;;;;;;14.05;10.20;;;;;;;-0.62;81.30;98397.56;1741048;82;20914;-75
2020/12/07 04:24:29;;;;;;;13.30;10.48;;;;;;;-0.62;81.19;98392.28;1746140;81;21871;-76
2020/12/07 04:26:56;;;;;;;13.95;10.98;;;;;;;-0.64;81.16;98400.70;1737777;82;20913;-76
2020/12/07 04:29:23;;;;;;;12.78;10.35;;;;;;;-0.69;81.16;98403.44;1737863;82;20949;-76
2020/12/07 04:31:52;;;;;;;13.98;10.45;;;;;;;-0.69;81.30;98393.32;1737887;82;21124;-74
2020/12/07 04:34:21;;;;;;;11.45;8.73;;;;;;;-0.69;81.26;98384.09;1737829;82;20925;-76
2020/12/07 04:36:51;;;;;;;13.95;10.88;;;;;;;-0.68;81.22;98387.16;1737881;82;21351;-75
2020/12/07 04:39:18;;;;;;;12.65;11.10;;;;;;;-0.69;81.22;98381.45;1735260;82;20980;-75
2020/12/07 04:41:45;;;;;;;15.53;12.55;;;;;;;-0.69;81.05;98390.68;1737794;82;20921;-75
2020/12/07 04:44:14;;;;;;;13.38;9.90;;;;;;;-0.71;81.03;98398.63;1737962;82;20920;-76
2020/12/07 04:46:41;;;;;;;11.90;10.08;;;;;;;-0.71;80.87;98392.50;1737827;82;20957;-74
2020/12/07 04:49:08;;;;;;;14.03;11.05;;;;;;;-0.75;80.95;98393.89;1737917;82;21722;-76
2020/12/07 04:51:36;;;;;;;13.80;10.43;;;;;;;-0.76;81.04;98408.00;1737765;82;21035;-76
2020/12/07 04:54:06;;;;;;;15.63;11.05;;;;;;;-0.79;81.06;98396.20;1737952;82;21323;-75
2020/12/07 04:56:35;;;;;;;12.45;11.15;;;;;;;-0.78;81.06;98396.60;1737860;82;20941;-76
2020/12/07 04:59:02;;;;;;;15.08;11.12;;;;;;;-0.80;81.02;98389.19;1711183;82;20917;-76
2020/12/07 05:01:30;;;;;;;13.10;10.00;;;;;;;-0.80;81.15;98375.14;1737827;82;21815;-75
2020/12/07 05:03:58;;;;;;;13.10;10.05;;;;;;;-0.83;81.08;98388.40;1737791;82;20988;-76
2020/12/07 05:06:26;;;;;;;13.80;9.78;;;;;;;-0.81;81.15;98366.80;1737854;82;20905;-76
2020/12/07 05:08:55;;;;;;;14.38;9.68;;;;;;;-0.85;81.11;98371.30;1664934;82;21497;-74
2020/12/07 05:11:22;;;;;;;13.80;11.05;;;;;;;-0.90;81.03;98366.55;1737934;82;21495;-73
2020/12/07 05:13:57;;;;;;;14.05;10.88;;;;;;;-0.90;81.23;98379.74;1737900;82;21798;-74
2020/12/07 05:16:19;;;;;;;13.15;11.03;;;;;;;-0.90;80.98;98361.28;1737088;82;21485;-75
2020/12/07 05:18:46;;;;;;;12.80;10.23;;;;;;;-0.89;81.02;98373.58;1737849;82;20996;-76
2020/12/07 05:21:17;;;;;;;13.18;10.23;;;;;;;-0.90;81.02;98358.65;1737847;82;21047;-77
2020/12/07 05:23:52;;;;;;;14.03;8.80;;;;;;;-0.94;81.12;98358.33;1687003;82;20917;-76
2020/12/07 05:26:21;;;;;;;12.00;9.88;;;;;;;-0.92;81.01;98364.42;1737899;81;21798;-75
2020/12/07 05:28:54;;;;;;;12.98;10.58;;;;;;;-0.94;80.91;98359.64;1737776;82;21457;-75
2020/12/07 05:31:22;;;;;;;14.35;10.08;;;;;;;-0.95;81.06;98356.12;1737791;82;21450;-75
2020/12/07 05:33:49;;;;;;;16.32;10.13;;;;;;;-0.92;80.93;98353.88;1737818;82;20988;-76
2020/12/07 05:36:17;;;;;;;15.15;10.58;;;;;;;-0.92;81.00;98355.19;1737788;82;21023;-75
2020/12/07 05:38:45;;;;;;;11.63;10.18;;;;;;;-0.90;81.06;98342.83;1737847;82;21928;-75
2020/12/07 05:41:13;;;;;;;10.23;8.73;;;;;;;-0.91;80.97;98346.39;1737801;82;20976;-75
2020/12/07 05:43:41;;;;;;;13.25;11.22;;;;;;;-0.88;80.91;98345.00;1737917;82;21426;-75
2020/12/07 05:46:09;;;;;;;13.58;10.63;;;;;;;-0.85;80.79;98361.18;1737697;82;21449;-76
2020/12/07 05:48:36;;;;;;;16.80;10.38;;;;;;;-0.88;80.83;98351.59;1737932;82;20940;-76
2020/12/07 05:51:07;;;;;;;14.70;9.78;;;;;;;-0.87;80.73;98357.25;1737723;82;21355;-76
2020/12/07 05:53:40;;;;;;;11.97;9.88;;;;;;;-0.86;80.64;98350.23;1737823;82;20945;-75
2020/12/07 05:56:09;;;;;;;12.40;9.63;;;;;;;-0.89;80.54;98368.30;1738041;82;21572;-75
2020/12/07 05:59:14;;;;;;;11.05;9.13;;;;;;;-0.87;80.58;98362.53;1737862;82;21820;-76
2020/12/07 06:01:43;;;;;;;12.60;9.10;;;;;;;-0.84;80.62;98349.27;1737757;82;20913;-75
2020/12/07 06:04:10;;;;;;;15.40;9.83;;;;;;;-0.89;80.61;98365.66;1737823;82;21135;-76
2020/12/07 06:06:38;;;;;;;14.15;10.50;;;;;;;-0.93;80.66;98360.04;1737726;82;20992;-76
2020/12/07 06:09:07;;;;;;;13.20;9.08;;;;;;;-0.94;80.67;98360.96;1737845;82;20897;-76
2020/12/07 06:11:40;;;;;;;13.05;10.65;;;;;;;-0.99;80.72;98371.61;1737751;82;20965;-75
2020/12/07 06:14:07;;;;;;;15.03;10.38;;;;;;;-0.99;81.00;98372.08;1737894;82;21012;-76
2020/12/07 06:16:38;;;;;;;12.50;10.80;;;;;;;-1.02;81.02;98360.28;1735184;82;21808;-76
2020/12/07 06:19:16;;;;;;;15.53;10.68;;;;;;;-1.02;80.98;98356.33;1737772;82;20909;-75
2020/12/07 06:21:57;;;;;;;13.38;10.50;;;;;;;-1.02;80.94;98365.09;1737800;82;20949;-74
2020/12/07 06:24:40;;;;;;;15.05;9.90;;;;;;;-1.00;80.70;98369.02;1737811;82;20949;-74
2020/12/07 06:27:12;;;;;;;14.03;10.55;;;;;;;-0.97;80.36;98358.40;1737834;82;21485;-74
2020/12/07 06:30:04;;;;;;;12.10;10.23;;;;;;;-0.96;80.34;98361.46;1737804;82;21365;-74
2020/12/07 06:32:52;;;;;;;8.77;7.87;;;;;;;-0.98;80.27;98366.77;1737975;82;21359;-75
2020/12/07 06:35:20;;;;;;;13.10;10.58;;;;;;;-0.99;80.15;98366.80;1737849;82;20961;-75
2020/12/07 06:37:50;;;;;;;10.50;9.33;;;;;;;-0.98;80.19;98363.24;1737761;82;21008;-76
2020/12/07 06:40:20;;;;;;;13.35;10.32;;;;;;;-0.99;80.15;98362.84;1737910;82;21474;-76
2020/12/07 06:42:48;;;;;;;15.25;11.35;;;;;;;-0.97;79.89;98364.98;1737720;82;21377;-75
2020/12/07 06:45:25;;;;;;;12.13;9.65;;;;;;;-0.97;79.92;98376.85;1737767;82;21052;-73
2020/12/07 06:47:54;;;;;;;14.55;10.60;;;;;;;-0.97;79.86;98367.63;1736955;82;20953;-75
2020/12/07 06:50:27;;;;;;;12.10;10.00;;;;;;;-0.97;79.66;98359.25;1737737;82;21035;-77
2020/12/07 06:52:59;;;;;;;12.30;9.88;;;;;;;-0.97;79.74;98355.77;1737330;82;21012;-76
2020/12/07 06:55:29;;;;;;;13.13;11.00;;;;;;;-0.98;79.69;98364.56;1737855;82;21206;-76
2020/12/07 06:57:58;;;;;;;10.85;8.28;;;;;;;-1.01;79.64;98363.31;1737802;82;20917;-75
2020/12/07 07:00:27;;;;;;;11.40;9.65;;;;;;;-1.04;79.74;98359.43;1737792;82;21316;-75
2020/12/07 07:02:58;;;;;;;12.10;9.15;;;;;;;-1.06;79.77;98372.64;1737775;82;21347;-74
2020/12/07 07:05:29;;;;;;;11.85;10.18;;;;;;;-1.04;79.89;98380.52;1737421;82;21527;-76
2020/12/07 07:07:58;;;;;;;10.98;8.70;;;;;;;-1.06;79.88;98373.11;1737443;82;21370;-75
2020/12/07 07:10:26;;;;;;;15.72;10.18;;;;;;;-1.06;79.71;98381.87;1737245;82;21101;-72
2020/12/07 07:12:55;;;;;;;13.58;10.32;;;;;;;-1.10;79.62;98382.41;1737652;82;21462;-80
2020/12/07 07:15:24;;;;;;;14.75;10.82;;;;;;;-1.06;79.61;98373.11;1737700;82;20933;-80
2020/12/07 07:17:53;;;;;;;19.37;10.45;;;;;;;-1.05;79.59;98378.80;1737805;82;21071;-81
2020/12/07 07:20:21;;;;;;;15.75;10.78;;;;;;;-1.04;79.50;98381.84;1737265;82;21406;-82
2020/12/07 07:22:51;;;;;;;16.60;11.70;;;;;;;-1.05;79.19;98388.89;1737164;82;21067;-80
2020/12/07 07:25:28;;;;;;;12.55;10.40;;;;;;;-1.02;78.98;98405.09;1738468;80;21174;-79
2020/12/07 07:28:08;;;;;;;15.23;11.50;;;;;;;-1.00;79.08;98391.42;1747616;82;21024;-79
2020/12/07 07:30:35;;;;;;;16.15;11.57;;;;;;;-0.98;78.91;98388.29;1748133;82;21036;-79
2020/12/07 07:33:09;;;;;;;14.38;10.98;;;;;;;-0.99;78.77;98414.26;1748382;82;21795;-80
2020/12/07 07:35:38;;;;;;;14.13;11.10;;;;;;;-0.99;78.41;98403.25;1748419;82;20976;-68
2020/12/07 07:38:07;;;;;;;16.82;11.65;;;;;;;-0.96;78.34;98406.28;1748856;82;21141;-76
2020/12/07 07:40:36;;;;;;;14.55;11.10;;;;;;;-0.98;78.31;98396.20;1748726;82;20949;-71
2020/12/07 07:43:08;;;;;;;15.55;10.78;;;;;;;-1.00;78.27;98396.70;1748879;81;20928;-82
2020/12/07 07:45:39;;;;;;;12.50;10.08;;;;;;;-1.00;78.29;98409.88;1748934;82;21900;-85
2020/12/07 07:50:52;;;;;;;20.82;12.07;;;;;;;-1.00;78.77;98408.56;1748942;82;21016;-84
2020/12/07 08:16:30;;;;;;;14.60;12.05;;;;;;;-1.03;77.64;98398.08;1766860;81;20192;-82
2020/12/07 08:19:01;;;;;;;15.83;11.53;;;;;;;-1.05;77.84;98397.26;1766886;81;20997;-83
2020/12/07 08:21:32;;;;;;;16.15;11.88;;;;;;;-1.12;77.99;98389.91;1766754;81;20984;-80
2020/12/07 08:24:09;;;;;;;14.28;11.70;;;;;;;-1.19;77.96;98391.83;1766921;80;20992;-76
2020/12/07 08:26:42;;;;;;;17.42;13.25;;;;;;;-1.19;78.21;98391.83;1768342;80;21358;-78
2020/12/07 08:29:13;;;;;;;15.63;11.65;;;;;;;-1.20;78.30;98388.80;1769802;81;21007;-81
2020/12/07 08:31:41;;;;;;;14.15;11.65;;;;;;;-1.17;78.64;98391.33;1769921;81;21000;-80
2020/12/07 08:34:17;;;;;;;13.35;11.68;;;;;;;-1.13;78.40;98399.60;1769826;81;20980;-78
2020/12/07 08:36:45;;;;;;;15.40;11.88;;;;;;;-1.11;78.03;98413.61;1769819;81;20941;-76
2020/12/07 08:39:13;;;;;;;24.02;16.52;;;;;;;-1.10;77.90;98410.55;1769848;81;21213;-79
2020/12/07 08:41:40;;;;;;;21.52;13.83;;;;;;;-1.08;78.11;98411.83;1769768;81;21004;-78
2020/12/07 08:44:10;;;;;;;26.48;17.55;;;;;;;-1.07;77.88;98406.52;1769937;81;21469;-82
2020/12/07 08:46:39;;;;;;;21.27;15.25;;;;;;;-1.11;77.61;98399.56;1769134;81;21019;-80
2020/12/07 08:49:09;;;;;;;23.73;13.90;;;;;;;-1.10;77.92;98394.27;1769997;81;20900;-81
2020/12/07 08:51:37;;;;;;;20.65;15.10;;;;;;;-1.13;77.87;98395.65;1769837;80;21805;-71
2020/12/07 08:54:05;;;;;;;18.45;13.95;;;;;;;-1.08;77.96;98397.33;1769798;81;21362;-73
2020/12/07 08:56:33;;;;;;;19.20;14.90;;;;;;;-1.06;77.66;98392.41;1769894;81;21366;-70
2020/12/07 08:59:00;;;;;;;18.02;12.45;;;;;;;-1.04;77.64;98397.66;1725015;81;21476;-71
2020/12/07 09:01:28;;;;;;;20.15;12.80;;;;;;;-1.04;77.44;98388.00;1769810;80;20996;-73
2020/12/07 09:03:56;;;;;;;19.50;13.78;;;;;;;-1.01;77.29;98387.04;1769924;81;21811;-71
2020/12/07 09:06:24;;;;;;;21.33;15.25;;;;;;;-1.01;77.27;98385.72;1769858;81;20948;-71
2020/12/07 09:08:52;;;;;;;18.62;13.40;;;;;;;-1.02;77.17;98362.92;1770010;81;20929;-71
2020/12/07 09:11:21;;;;;;;18.98;13.93;;;;;;;-1.02;77.28;98378.73;1769882;81;20996;-69
2020/12/07 09:13:48;;;;;;;21.05;13.13;;;;;;;-1.03;77.28;98376.53;1770063;81;21442;-71
2020/12/07 09:16:18;;;;;;;16.10;11.85;;;;;;;-1.01;76.95;98379.13;1770052;81;22669;-70
2020/12/07 09:18:45;;;;;;;27.77;15.20;;;;;;;-0.98;76.99;98379.06;1769937;81;20944;-70
2020/12/07 09:21:13;;;;;;;18.92;13.25;;;;;;;-0.98;76.73;98371.16;1769944;80;21471;-71
2020/12/07 09:23:41;;;;;;;22.13;14.45;;;;;;;-0.96;77.00;98364.09;1769988;81;21460;-71
2020/12/07 09:26:08;;;;;;;20.85;13.53;;;;;;;-0.95;76.75;98361.85;1769255;80;21351;-70
2020/12/07 09:28:36;;;;;;;17.35;14.18;;;;;;;-0.96;76.60;98358.83;1767074;80;22250;-72
2020/12/07 09:31:05;;;;;;;20.48;12.70;;;;;;;-0.97;76.66;98362.35;1766885;81;20953;-71
2020/12/07 09:33:35;;;;;;;18.30;13.25;;;;;;;-0.97;76.63;98353.98;1766963;81;20952;-71
2020/12/07 09:36:04;;;;;;;24.47;14.40;;;;;;;-0.95;76.26;98356.58;1767022;81;20937;-69
2020/12/07 09:38:32;;;;;;;30.92;16.55;;;;;;;-0.95;76.54;98357.44;1767043;81;21410;-71
2020/12/07 09:40:59;;;;;;;27.15;16.42;;;;;;;-0.94;76.18;98359.64;1767004;81;22234;-71
2020/12/07 09:43:28;;;;;;;19.15;15.13;;;;;;;-0.92;76.14;98363.10;1766877;81;21039;-72
2020/12/07 09:45:55;;;;;;;20.32;12.93;;;;;;;-0.91;76.46;98359.58;1766961;81;20933;-70
2020/12/07 09:48:22;;;;;;;17.20;13.62;;;;;;;-0.91;75.93;98355.62;1766902;81;20920;-71
2020/12/07 09:50:55;;;;;;;20.72;13.68;;;;;;;-0.94;75.56;98359.19;1766937;81;20953;-75
2020/12/07 09:53:33;;;;;;;16.62;11.20;;;;;;;-0.93;75.46;98356.08;1766968;81;21809;-71
2020/12/07 09:56:01;;;;;;;19.25;13.18;;;;;;;-0.95;75.56;98349.53;1766866;80;20988;-70
2020/12/07 09:58:29;;;;;;;20.08;16.45;;;;;;;-0.97;75.53;98368.94;1767026;81;21418;-72
2020/12/07 10:00:56;;;;;;;21.70;16.10;;;;;;;-1.03;75.32;98351.48;1766954;81;21072;-70
2020/12/07 10:03:25;;;;;;;17.73;12.43;;;;;;;-1.04;75.61;98383.16;1766974;81;20881;-70
2020/12/07 10:05:54;;;;;;;20.70;14.70;;;;;;;-1.05;75.48;98358.57;1766909;80;21359;-70
2020/12/07 10:08:21;;;;;;;17.15;13.08;;;;;;;-1.05;75.54;98353.77;1766838;81;21000;-70
2020/12/07 10:10:50;;;;;;;25.43;14.00;;;;;;;-1.06;75.62;98363.88;1766950;81;20956;-71
2020/12/07 10:13:19;;;;;;;21.73;13.62;;;;;;;-1.02;75.61;98370.83;1746022;81;21016;-72
2020/12/07 10:15:47;;;;;;;20.32;14.87;;;;;;;-1.02;75.59;98377.42;1766923;81;20932;-71
2020/12/07 10:18:15;;;;;;;22.70;14.07;;;;;;;-1.03;75.53;98376.53;1766898;80;21818;-70
2020/12/07 10:20:46;;;;;;;18.17;13.85;;;;;;;-1.01;75.65;98377.38;1766949;80;20929;-70
2020/12/07 10:23:14;;;;;;;19.20;12.73;;;;;;;-1.03;75.10;98368.63;1767049;81;21367;-71
2020/12/07 10:25:43;;;;;;;14.83;11.85;;;;;;;-0.97;75.32;98363.67;1766885;80;20992;-71
2020/12/07 10:28:12;;;;;;;17.17;14.00;;;;;;;-0.97;74.93;98362.35;1719249;81;20936;-71
2020/12/07 10:30:41;;;;;;;17.20;13.05;;;;;;;-1.01;74.90;98372.11;1769846;81;21921;-71
2020/12/07 10:33:09;;;;;;;16.57;12.33;;;;;;;-0.99;75.40;98378.20;1769856;81;20988;-72
2020/12/07 10:35:37;;;;;;;18.25;14.55;;;;;;;-1.00;75.38;98380.88;1769915;81;20929;-70
2020/12/07 10:38:05;;;;;;;15.90;12.28;;;;;;;-1.00;74.97;98374.28;1769843;80;21485;-71
2020/12/07 10:40:33;;;;;;;21.55;13.65;;;;;;;-0.97;74.97;98380.81;1769868;81;20937;-72
2020/12/07 10:43:01;;;;;;;21.50;14.47;;;;;;;-0.97;75.00;98379.03;1769922;80;21366;-71
2020/12/07 10:45:28;;;;;;;17.52;12.70;;;;;;;-0.92;75.16;98374.97;1769906;81;21008;-72
2020/12/07 10:47:57;;;;;;;15.13;11.95;;;;;;;-0.93;75.09;98387.72;1769953;81;20925;-71
2020/12/07 10:50:26;;;;;;;17.57;13.43;;;;;;;-0.94;74.96;98395.23;1769813;81;20964;-70
2020/12/07 10:52:54;;;;;;;19.92;14.00;;;;;;;-0.96;74.82;98398.38;1769923;81;20873;-70
2020/12/07 10:55:23;;;;;;;15.30;12.73;;;;;;;-0.95;74.72;98374.58;1769997;81;22330;-70
2020/12/07 10:57:51;;;;;;;20.72;14.90;;;;;;;-0.94;74.60;98366.23;1769816;81;21004;-71
2020/12/07 11:00:20;;;;;;;17.62;13.45;;;;;;;-0.94;75.03;98375.00;1769902;81;21016;-71
2020/12/07 11:02:48;;;;;;;18.30;14.15;;;;;;;-0.93;75.02;98366.62;1769789;81;21064;-72
2020/12/07 11:05:15;;;;;;;25.95;15.00;;;;;;;-0.94;74.89;98368.41;1769922;81;20925;-70
2020/12/07 11:07:45;;;;;;;19.90;13.68;;;;;;;-0.95;74.80;98386.90;1769848;81;21805;-70
2020/12/07 11:10:12;;;;;;;24.43;15.45;;;;;;;-0.98;74.49;98373.79;1769923;81;21450;-71
2020/12/07 11:12:43;;;;;;;23.18;15.20;;;;;;;-0.98;74.73;98363.24;1769895;81;21414;-71
2020/12/07 11:15:10;;;;;;;15.48;12.80;;;;;;;-0.97;74.84;98359.72;1769847;81;20996;-70
2020/12/07 11:17:38;;;;;;;16.67;13.93;;;;;;;-0.98;74.72;98375.11;1769972;81;21031;-71
2020/12/07 11:20:05;;;;;;;17.20;13.65;;;;;;;-0.96;74.67;98361.46;1769866;81;21280;-70
2020/12/07 11:22:33;;;;;;;19.37;13.58;;;;;;;-0.94;74.74;98374.14;1769767;81;20957;-71
2020/12/07 11:25:01;;;;;;;17.52;13.58;;;;;;;-0.94;74.75;98367.09;1769891;80;20984;-70
2020/12/07 11:27:30;;;;;;;18.35;13.83;;;;;;;-0.91;74.86;98360.89;1768170;81;21023;-70
2020/12/07 11:29:57;;;;;;;21.25;12.95;;;;;;;-0.92;74.57;98361.32;1769863;81;21032;-73
2020/12/07 11:32:26;;;;;;;18.98;15.58;;;;;;;-0.95;74.19;98350.84;1769813;81;21345;-70
2020/12/07 11:34:54;;;;;;;17.48;14.20;;;;;;;-0.92;74.64;98360.47;1769806;80;21513;-71
2020/12/07 11:37:24;;;;;;;17.70;14.25;;;;;;;-0.93;74.68;98361.36;1769897;80;21004;-73
2020/12/07 11:40:01;;;;;;;15.72;13.10;;;;;;;-0.92;74.49;98349.92;1769764;81;20933;-72
2020/12/07 11:42:35;;;;;;;25.92;16.40;;;;;;;-0.89;74.47;98356.44;1768687;81;20948;-74
2020/12/07 11:44:56;;;;;;;24.82;18.48;;;;;;;-0.89;74.73;98349.84;1768383;81;21273;-74
2020/12/07 11:47:24;;;;;;;18.77;14.80;;;;;;;-0.91;74.41;98352.52;1769772;80;21521;-70
2020/12/07 11:49:51;;;;;;;22.17;13.95;;;;;;;-0.90;74.45;98352.05;1769873;81;20984;-70
2020/12/07 11:52:19;;;;;;;20.37;15.35;;;;;;;-0.89;74.34;98355.58;1741985;81;21020;-71
2020/12/07 11:54:47;;;;;;;24.77;15.68;;;;;;;-0.91;74.57;98362.21;1769950;81;21460;-70